CCA1576 ZSQD-ZBAA
Flight info
| Callsign | CCA1576 |
|---|---|
| Flight time | 1h 2m |
| Altitude | 21700 |
| Route | ZSQD WFG W103 YQG W160 TUMLO W157 AVBOX ZBAA |
| Aircraft | A319/M-SDE2E3FGHIJ4J5M1RWXYZ/LB1D1 |
Departure
| Time | 2026-04-18 04:05 |
|---|---|
| Airport | Qingdao Jiaodong International Airport (ZSQD) |
Arrival
| Time | 2026-04-18 05:08 |
|---|---|
| Airport | Beijing Capital International Airport (ZBAA) |
| Time | Latitude | Longitude | Altitude | Speed | Heading |
|---|---|---|---|---|---|
| 2026-04-18 03:50 | 36.36573 | 120.09352 | 37 ft | 0 kts | 281° |
| 2026-04-18 03:56 | 36.36572 | 120.09365 | 37 ft | 4 kts | 281° |
| 2026-04-18 03:56 | 36.36566 | 120.09397 | 35 ft | 4 kts | 281° |
| 2026-04-18 03:57 | 36.36559 | 120.09463 | 36 ft | 4 kts | 281° |
| 2026-04-18 03:57 | 36.36551 | 120.09491 | 35 ft | 4 kts | 328° |
| 2026-04-18 03:57 | 36.36529 | 120.09502 | 35 ft | 2 kts | 342° |
| 2026-04-18 03:58 | 36.36527 | 120.09502 | 35 ft | 1 kts | 342° |
| 2026-04-18 03:59 | 36.36528 | 120.09502 | 35 ft | 1 kts | 343° |
| 2026-04-18 03:59 | 36.36543 | 120.09497 | 36 ft | 5 kts | 344° |
| 2026-04-18 04:00 | 36.36595 | 120.09478 | 36 ft | 10 kts | 341° |
| 2026-04-18 04:00 | 36.36669 | 120.09448 | 37 ft | 12 kts | 342° |
| 2026-04-18 04:00 | 36.36756 | 120.09414 | 37 ft | 14 kts | 342° |
| 2026-04-18 04:00 | 36.36848 | 120.09378 | 35 ft | 14 kts | 342° |
| 2026-04-18 04:01 | 36.36908 | 120.09424 | 37 ft | 12 kts | 72° |
| 2026-04-18 04:01 | 36.36937 | 120.09528 | 36 ft | 13 kts | 58° |
| 2026-04-18 04:01 | 36.37024 | 120.09528 | 37 ft | 14 kts | 342° |
| 2026-04-18 04:01 | 36.37121 | 120.09489 | 37 ft | 15 kts | 342° |
| 2026-04-18 04:02 | 36.37229 | 120.09447 | 37 ft | 17 kts | 342° |
| 2026-04-18 04:02 | 36.37343 | 120.09401 | 36 ft | 18 kts | 342° |
| 2026-04-18 04:02 | 36.37468 | 120.09352 | 35 ft | 19 kts | 342° |
| 2026-04-18 04:02 | 36.37596 | 120.09301 | 35 ft | 20 kts | 342° |
| 2026-04-18 04:03 | 36.37731 | 120.09248 | 37 ft | 21 kts | 342° |
| 2026-04-18 04:03 | 36.37873 | 120.09192 | 36 ft | 22 kts | 342° |
| 2026-04-18 04:03 | 36.38017 | 120.09135 | 37 ft | 22 kts | 342° |
| 2026-04-18 04:03 | 36.38114 | 120.09174 | 37 ft | 13 kts | 72° |
| 2026-04-18 04:04 | 36.38104 | 120.09287 | 38 ft | 14 kts | 110° |
| 2026-04-18 04:04 | 36.38034 | 120.09356 | 39 ft | 14 kts | 162° |
| 2026-04-18 04:04 | 36.37842 | 120.09431 | 38 ft | 62 kts | 162° |
| 2026-04-18 04:04 | 36.37206 | 120.09681 | 39 ft | 127 kts | 162° |
| 2026-04-18 04:05 | 36.36546 | 120.09939 | 65 ft | 159 kts | 162° |
| 2026-04-18 04:05 | 36.35491 | 120.10350 | 648 ft | 165 kts | 162° |
| 2026-04-18 04:05 | 36.34356 | 120.10797 | 1244 ft | 176 kts | 162° |
| 2026-04-18 04:05 | 36.33156 | 120.11276 | 1805 ft | 187 kts | 162° |
| 2026-04-18 04:06 | 36.31879 | 120.11786 | 2363 ft | 198 kts | 162° |
| 2026-04-18 04:06 | 36.30520 | 120.12331 | 2923 ft | 212 kts | 161° |
| 2026-04-18 04:06 | 36.29076 | 120.12910 | 3480 ft | 227 kts | 161° |
| 2026-04-18 04:06 | 36.27506 | 120.13539 | 4076 ft | 246 kts | 161° |
| 2026-04-18 04:07 | 36.25817 | 120.14212 | 4718 ft | 262 kts | 161° |
| 2026-04-18 04:07 | 36.24029 | 120.14792 | 5394 ft | 272 kts | 174° |
| 2026-04-18 04:07 | 36.22171 | 120.14311 | 6100 ft | 280 kts | 208° |
| 2026-04-18 04:07 | 36.20804 | 120.12602 | 6772 ft | 286 kts | 242° |
| 2026-04-18 04:08 | 36.20311 | 120.10200 | 7460 ft | 292 kts | 266° |
| 2026-04-18 04:08 | 36.20337 | 120.07689 | 8152 ft | 294 kts | 274° |
| 2026-04-18 04:08 | 36.20491 | 120.05197 | 8846 ft | 298 kts | 274° |
| 2026-04-18 04:08 | 36.20613 | 120.02603 | 9576 ft | 301 kts | 272° |
| 2026-04-18 04:09 | 36.20646 | 119.99988 | 10279 ft | 306 kts | 269° |
| 2026-04-18 04:09 | 36.20620 | 119.97344 | 10967 ft | 308 kts | 272° |
| 2026-04-18 04:09 | 36.21039 | 119.94760 | 11592 ft | 313 kts | 291° |
| 2026-04-18 04:09 | 36.22142 | 119.92428 | 11808 ft | 318 kts | 313° |
| 2026-04-18 04:10 | 36.23882 | 119.90744 | 12011 ft | 340 kts | 335° |
| 2026-04-18 04:10 | 36.26243 | 119.89667 | 12229 ft | 363 kts | 344° |
| 2026-04-18 04:10 | 36.28713 | 119.88695 | 12629 ft | 377 kts | 344° |
| 2026-04-18 04:10 | 36.31240 | 119.87712 | 13298 ft | 384 kts | 343° |
| 2026-04-18 04:11 | 36.33782 | 119.86662 | 14019 ft | 388 kts | 338° |
| 2026-04-18 04:11 | 36.36144 | 119.85040 | 14617 ft | 395 kts | 325° |
| 2026-04-18 04:11 | 36.38199 | 119.82700 | 15262 ft | 400 kts | 311° |
| 2026-04-18 04:11 | 36.39770 | 119.79847 | 15947 ft | 402 kts | 297° |
| 2026-04-18 04:12 | 36.40937 | 119.76744 | 16592 ft | 405 kts | 294° |
| 2026-04-18 04:12 | 36.42130 | 119.73486 | 17286 ft | 409 kts | 294° |
| 2026-04-18 04:12 | 36.43311 | 119.70262 | 17885 ft | 413 kts | 294° |
| 2026-04-18 04:12 | 36.44509 | 119.66996 | 18456 ft | 418 kts | 294° |
| 2026-04-18 04:13 | 36.45717 | 119.63718 | 19014 ft | 421 kts | 294° |
| 2026-04-18 04:13 | 36.46948 | 119.60390 | 19576 ft | 423 kts | 294° |
| 2026-04-18 04:13 | 36.48157 | 119.57127 | 20086 ft | 426 kts | 294° |
| 2026-04-18 04:13 | 36.49389 | 119.53800 | 20588 ft | 430 kts | 294° |
| 2026-04-18 04:14 | 36.50671 | 119.50323 | 21113 ft | 432 kts | 294° |
| 2026-04-18 04:14 | 36.51921 | 119.46919 | 21587 ft | 435 kts | 294° |
| 2026-04-18 04:14 | 36.53176 | 119.43497 | 21721 ft | 437 kts | 294° |
| 2026-04-18 04:14 | 36.54455 | 119.40007 | 21746 ft | 450 kts | 294° |
| 2026-04-18 04:15 | 36.55735 | 119.36518 | 21739 ft | 462 kts | 294° |
| 2026-04-18 04:15 | 36.57097 | 119.32798 | 21739 ft | 465 kts | 294° |
| 2026-04-18 04:15 | 36.58452 | 119.29090 | 21736 ft | 465 kts | 294° |
| 2026-04-18 04:15 | 36.59770 | 119.25473 | 21735 ft | 465 kts | 294° |
| 2026-04-18 04:16 | 36.61108 | 119.21794 | 21731 ft | 466 kts | 294° |
| 2026-04-18 04:16 | 36.62443 | 119.18126 | 21735 ft | 465 kts | 294° |
| 2026-04-18 04:16 | 36.63745 | 119.14469 | 21728 ft | 464 kts | 291° |
| 2026-04-18 04:16 | 36.64778 | 119.10638 | 21733 ft | 464 kts | 287° |
| 2026-04-18 04:17 | 36.65771 | 119.06812 | 21728 ft | 465 kts | 287° |
| 2026-04-18 04:17 | 36.66752 | 119.03014 | 21734 ft | 465 kts | 287° |
| 2026-04-18 04:17 | 36.67743 | 118.99150 | 21735 ft | 465 kts | 287° |
| 2026-04-18 04:17 | 36.68723 | 118.95312 | 21736 ft | 464 kts | 287° |
| 2026-04-18 04:18 | 36.69668 | 118.91595 | 21739 ft | 464 kts | 287° |
| 2026-04-18 04:18 | 36.70678 | 118.87648 | 21738 ft | 463 kts | 287° |
| 2026-04-18 04:18 | 36.71647 | 118.83875 | 21740 ft | 463 kts | 287° |
| 2026-04-18 04:18 | 36.72622 | 118.80058 | 21739 ft | 462 kts | 287° |
| 2026-04-18 04:19 | 36.73602 | 118.76216 | 21732 ft | 462 kts | 287° |
| 2026-04-18 04:19 | 36.74573 | 118.72402 | 21730 ft | 462 kts | 287° |
| 2026-04-18 04:19 | 36.75539 | 118.68597 | 21731 ft | 462 kts | 287° |
| 2026-04-18 04:19 | 36.76512 | 118.64758 | 21728 ft | 462 kts | 287° |
| 2026-04-18 04:20 | 36.77475 | 118.60938 | 21728 ft | 461 kts | 287° |
| 2026-04-18 04:20 | 36.78433 | 118.57123 | 21728 ft | 461 kts | 287° |
| 2026-04-18 04:20 | 36.79392 | 118.53300 | 21730 ft | 461 kts | 287° |
| 2026-04-18 04:20 | 36.80349 | 118.49493 | 21729 ft | 461 kts | 287° |
| 2026-04-18 04:21 | 36.81289 | 118.45752 | 21727 ft | 461 kts | 287° |
| 2026-04-18 04:21 | 36.82265 | 118.41866 | 21723 ft | 460 kts | 287° |
| 2026-04-18 04:21 | 36.83207 | 118.38100 | 21722 ft | 460 kts | 287° |
| 2026-04-18 04:21 | 36.84161 | 118.34291 | 21725 ft | 459 kts | 287° |
| 2026-04-18 04:22 | 36.85099 | 118.30544 | 21728 ft | 459 kts | 287° |
| 2026-04-18 04:22 | 36.86057 | 118.26693 | 21729 ft | 458 kts | 287° |
| 2026-04-18 04:22 | 36.87004 | 118.22894 | 21727 ft | 458 kts | 287° |
| 2026-04-18 04:22 | 36.87940 | 118.19141 | 21726 ft | 457 kts | 287° |
| 2026-04-18 04:23 | 36.88899 | 118.15301 | 21719 ft | 457 kts | 287° |
| 2026-04-18 04:23 | 36.89840 | 118.11509 | 21722 ft | 457 kts | 287° |
| 2026-04-18 04:23 | 36.90776 | 118.07715 | 21717 ft | 457 kts | 287° |
| 2026-04-18 04:23 | 36.91701 | 118.03950 | 21725 ft | 457 kts | 287° |
| 2026-04-18 04:24 | 36.92635 | 118.00147 | 21724 ft | 456 kts | 287° |
| 2026-04-18 04:24 | 36.93565 | 117.96360 | 21725 ft | 456 kts | 287° |
| 2026-04-18 04:24 | 36.94488 | 117.92603 | 21726 ft | 455 kts | 287° |
| 2026-04-18 04:24 | 36.95401 | 117.88894 | 21721 ft | 455 kts | 287° |
| 2026-04-18 04:25 | 36.96346 | 117.85052 | 21717 ft | 454 kts | 287° |
| 2026-04-18 04:25 | 36.97260 | 117.81324 | 21713 ft | 454 kts | 287° |
| 2026-04-18 04:25 | 36.98184 | 117.77540 | 21709 ft | 454 kts | 287° |
| 2026-04-18 04:25 | 36.99096 | 117.73795 | 21706 ft | 454 kts | 287° |
| 2026-04-18 04:26 | 37.00025 | 117.69983 | 21704 ft | 454 kts | 286° |
| 2026-04-18 04:26 | 37.00946 | 117.66207 | 21702 ft | 454 kts | 287° |
| 2026-04-18 04:26 | 37.01864 | 117.62434 | 21700 ft | 454 kts | 287° |
| 2026-04-18 04:26 | 37.02783 | 117.58650 | 21698 ft | 453 kts | 287° |
| 2026-04-18 04:27 | 37.03698 | 117.54879 | 21697 ft | 453 kts | 286° |
| 2026-04-18 04:27 | 37.04615 | 117.51091 | 21695 ft | 453 kts | 286° |
| 2026-04-18 04:27 | 37.05522 | 117.47329 | 21691 ft | 453 kts | 287° |
| 2026-04-18 04:27 | 37.06420 | 117.43584 | 21700 ft | 453 kts | 287° |
| 2026-04-18 04:28 | 37.07335 | 117.39772 | 21706 ft | 452 kts | 287° |
| 2026-04-18 04:28 | 37.08223 | 117.36075 | 21708 ft | 452 kts | 287° |
| 2026-04-18 04:28 | 37.09127 | 117.32299 | 21704 ft | 451 kts | 287° |
| 2026-04-18 04:28 | 37.10029 | 117.28522 | 21703 ft | 451 kts | 287° |
| 2026-04-18 04:29 | 37.10928 | 117.24753 | 21704 ft | 451 kts | 287° |
| 2026-04-18 04:29 | 37.11827 | 117.20992 | 21699 ft | 451 kts | 287° |
| 2026-04-18 04:29 | 37.12728 | 117.17221 | 21694 ft | 451 kts | 287° |
| 2026-04-18 04:29 | 37.13625 | 117.13454 | 21694 ft | 451 kts | 287° |
| 2026-04-18 04:30 | 37.14513 | 117.09719 | 21696 ft | 450 kts | 287° |
| 2026-04-18 04:30 | 37.15403 | 117.05973 | 21703 ft | 450 kts | 287° |
| 2026-04-18 04:30 | 37.16302 | 117.02183 | 21705 ft | 450 kts | 287° |
| 2026-04-18 04:30 | 37.17193 | 116.98420 | 21702 ft | 450 kts | 287° |
| 2026-04-18 04:31 | 37.18078 | 116.94675 | 21698 ft | 450 kts | 287° |
| 2026-04-18 04:31 | 37.18963 | 116.90931 | 21702 ft | 450 kts | 287° |
| 2026-04-18 04:31 | 37.20015 | 116.87215 | 21700 ft | 449 kts | 295° |
| 2026-04-18 04:31 | 37.21592 | 116.83824 | 21692 ft | 449 kts | 306° |
| 2026-04-18 04:32 | 37.23603 | 116.80942 | 21689 ft | 449 kts | 316° |
| 2026-04-18 04:32 | 37.26117 | 116.78493 | 21691 ft | 449 kts | 327° |
| 2026-04-18 04:32 | 37.28836 | 116.76774 | 21693 ft | 449 kts | 338° |
| 2026-04-18 04:32 | 37.31884 | 116.75552 | 21686 ft | 449 kts | 342° |
| 2026-04-18 04:33 | 37.34880 | 116.74419 | 21679 ft | 449 kts | 342° |
| 2026-04-18 04:33 | 37.37870 | 116.73282 | 21677 ft | 449 kts | 342° |
| 2026-04-18 04:33 | 37.40865 | 116.72142 | 21665 ft | 449 kts | 342° |
| 2026-04-18 04:33 | 37.43860 | 116.71002 | 21663 ft | 450 kts | 342° |
| 2026-04-18 04:34 | 37.46831 | 116.69872 | 21662 ft | 450 kts | 342° |
| 2026-04-18 04:34 | 37.49812 | 116.68734 | 21666 ft | 450 kts | 342° |
| 2026-04-18 04:34 | 37.52799 | 116.67592 | 21669 ft | 450 kts | 342° |
| 2026-04-18 04:34 | 37.55813 | 116.66437 | 21670 ft | 450 kts | 341° |
| 2026-04-18 04:35 | 37.58807 | 116.65287 | 21672 ft | 450 kts | 342° |
| 2026-04-18 04:35 | 37.61792 | 116.64140 | 21673 ft | 450 kts | 341° |
| 2026-04-18 04:35 | 37.64780 | 116.62993 | 21676 ft | 450 kts | 341° |
| 2026-04-18 04:35 | 37.67794 | 116.61838 | 21672 ft | 450 kts | 342° |
| 2026-04-18 04:36 | 37.70793 | 116.60687 | 21667 ft | 450 kts | 341° |
| 2026-04-18 04:36 | 37.73784 | 116.59543 | 21669 ft | 450 kts | 342° |
| 2026-04-18 04:36 | 37.76743 | 116.58423 | 21667 ft | 450 kts | 342° |
| 2026-04-18 04:36 | 37.79792 | 116.57274 | 21660 ft | 451 kts | 342° |
| 2026-04-18 04:37 | 37.82801 | 116.56140 | 21662 ft | 451 kts | 341° |
| 2026-04-18 04:37 | 37.85761 | 116.55019 | 21656 ft | 451 kts | 341° |
| 2026-04-18 04:37 | 37.88769 | 116.53876 | 21650 ft | 452 kts | 342° |
| 2026-04-18 04:37 | 37.91799 | 116.52724 | 21649 ft | 452 kts | 341° |
| 2026-04-18 04:38 | 37.94791 | 116.51569 | 21652 ft | 452 kts | 339° |
| 2026-04-18 04:38 | 37.97673 | 116.50027 | 21649 ft | 449 kts | 331° |
| 2026-04-18 04:38 | 38.00347 | 116.47925 | 21648 ft | 448 kts | 323° |
| 2026-04-18 04:38 | 38.02841 | 116.45623 | 21652 ft | 448 kts | 322° |
| 2026-04-18 04:39 | 38.05390 | 116.43280 | 21648 ft | 448 kts | 323° |
| 2026-04-18 04:39 | 38.07927 | 116.40955 | 21647 ft | 448 kts | 322° |
| 2026-04-18 04:39 | 38.10456 | 116.38635 | 21647 ft | 449 kts | 323° |
| 2026-04-18 04:39 | 38.12987 | 116.36313 | 21651 ft | 448 kts | 322° |
| 2026-04-18 04:40 | 38.15515 | 116.33996 | 21651 ft | 448 kts | 322° |
| 2026-04-18 04:40 | 38.18047 | 116.31670 | 21649 ft | 448 kts | 323° |
| 2026-04-18 04:40 | 38.20607 | 116.29399 | 21639 ft | 450 kts | 327° |
| 2026-04-18 04:40 | 38.23434 | 116.27649 | 21367 ft | 456 kts | 338° |
| 2026-04-18 04:41 | 38.26497 | 116.26655 | 20850 ft | 454 kts | 350° |
| 2026-04-18 04:41 | 38.29597 | 116.26408 | 20356 ft | 454 kts | 359° |
| 2026-04-18 04:41 | 38.32735 | 116.26839 | 19863 ft | 453 kts | 9° |
| 2026-04-18 04:41 | 38.35828 | 116.27837 | 19371 ft | 452 kts | 12° |
| 2026-04-18 04:42 | 38.38801 | 116.28852 | 18911 ft | 448 kts | 13° |
| 2026-04-18 04:42 | 38.41812 | 116.29883 | 18437 ft | 445 kts | 13° |
| 2026-04-18 04:42 | 38.44786 | 116.30904 | 17928 ft | 441 kts | 13° |
| 2026-04-18 04:42 | 38.47731 | 116.31917 | 17650 ft | 440 kts | 12° |
| 2026-04-18 04:43 | 38.50662 | 116.32925 | 17645 ft | 424 kts | 13° |
| 2026-04-18 04:43 | 38.53439 | 116.33880 | 17652 ft | 406 kts | 12° |
| 2026-04-18 04:43 | 38.56113 | 116.34806 | 17651 ft | 389 kts | 12° |
| 2026-04-18 04:43 | 38.58680 | 116.35701 | 17652 ft | 377 kts | 12° |
| 2026-04-18 04:44 | 38.61176 | 116.36615 | 17649 ft | 375 kts | 17° |
| 2026-04-18 04:44 | 38.63540 | 116.38081 | 17651 ft | 376 kts | 30° |
| 2026-04-18 04:44 | 38.65586 | 116.40179 | 17651 ft | 380 kts | 44° |
| 2026-04-18 04:44 | 38.67248 | 116.42797 | 17652 ft | 380 kts | 52° |
| 2026-04-18 04:45 | 38.69052 | 116.45255 | 17485 ft | 377 kts | 32° |
| 2026-04-18 04:45 | 38.71411 | 116.46617 | 17235 ft | 371 kts | 13° |
| 2026-04-18 04:45 | 38.73879 | 116.47605 | 16969 ft | 371 kts | 15° |
| 2026-04-18 04:45 | 38.76277 | 116.48692 | 16715 ft | 370 kts | 18° |
| 2026-04-18 04:46 | 38.78675 | 116.49879 | 16515 ft | 370 kts | 19° |
| 2026-04-18 04:46 | 38.81070 | 116.51118 | 16377 ft | 369 kts | 20° |
| 2026-04-18 04:46 | 38.83433 | 116.52353 | 16256 ft | 368 kts | 20° |
| 2026-04-18 04:46 | 38.85804 | 116.53582 | 16135 ft | 368 kts | 20° |
| 2026-04-18 04:47 | 38.88187 | 116.54804 | 16009 ft | 368 kts | 20° |
| 2026-04-18 04:47 | 38.90606 | 116.56031 | 15884 ft | 367 kts | 19° |
| 2026-04-18 04:47 | 38.92951 | 116.57215 | 15755 ft | 370 kts | 19° |
| 2026-04-18 04:47 | 38.95340 | 116.58414 | 15628 ft | 368 kts | 19° |
| 2026-04-18 04:48 | 38.97742 | 116.59617 | 15502 ft | 367 kts | 19° |
| 2026-04-18 04:48 | 39.00128 | 116.60816 | 15378 ft | 368 kts | 19° |
| 2026-04-18 04:48 | 39.02509 | 116.62022 | 15256 ft | 367 kts | 20° |
| 2026-04-18 04:48 | 39.04873 | 116.63225 | 15141 ft | 365 kts | 20° |
| 2026-04-18 04:49 | 39.07191 | 116.64406 | 15022 ft | 365 kts | 20° |
| 2026-04-18 04:49 | 39.09580 | 116.65623 | 14899 ft | 364 kts | 20° |
| 2026-04-18 04:49 | 39.11957 | 116.66831 | 14777 ft | 364 kts | 20° |
| 2026-04-18 04:49 | 39.14263 | 116.68003 | 14652 ft | 363 kts | 20° |
| 2026-04-18 04:50 | 39.16637 | 116.69206 | 14538 ft | 363 kts | 20° |
| 2026-04-18 04:50 | 39.18975 | 116.70392 | 14420 ft | 363 kts | 20° |
| 2026-04-18 04:50 | 39.21319 | 116.71582 | 14307 ft | 363 kts | 20° |
| 2026-04-18 04:50 | 39.23670 | 116.72778 | 14189 ft | 363 kts | 20° |
| 2026-04-18 04:51 | 39.26035 | 116.73984 | 14070 ft | 363 kts | 20° |
| 2026-04-18 04:51 | 39.28384 | 116.75179 | 13953 ft | 363 kts | 20° |
| 2026-04-18 04:51 | 39.30699 | 116.76364 | 13812 ft | 363 kts | 20° |
| 2026-04-18 04:51 | 39.33063 | 116.77578 | 13729 ft | 362 kts | 20° |
| 2026-04-18 04:52 | 39.35422 | 116.78785 | 13747 ft | 362 kts | 20° |
| 2026-04-18 04:52 | 39.37743 | 116.79972 | 13747 ft | 362 kts | 20° |
| 2026-04-18 04:52 | 39.39978 | 116.81114 | 13752 ft | 363 kts | 20° |
| 2026-04-18 04:52 | 39.42285 | 116.82292 | 13747 ft | 363 kts | 20° |
| 2026-04-18 04:53 | 39.44665 | 116.83509 | 13747 ft | 364 kts | 20° |
| 2026-04-18 04:53 | 39.47034 | 116.84726 | 13540 ft | 363 kts | 20° |
| 2026-04-18 04:53 | 39.48587 | 116.85526 | 13400 ft | 363 kts | 20° |
| 2026-04-18 04:53 | 39.50932 | 116.86735 | 13189 ft | 362 kts | 20° |
| 2026-04-18 04:54 | 39.53254 | 116.87930 | 12984 ft | 360 kts | 20° |
| 2026-04-18 04:54 | 39.55597 | 116.89133 | 12773 ft | 359 kts | 20° |
| 2026-04-18 04:54 | 39.57923 | 116.90303 | 12567 ft | 359 kts | 18° |
| 2026-04-18 04:54 | 39.60310 | 116.91140 | 12371 ft | 358 kts | 9° |
| 2026-04-18 04:55 | 39.62789 | 116.91537 | 12159 ft | 355 kts | 0° |
| 2026-04-18 04:55 | 39.65251 | 116.91476 | 11958 ft | 352 kts | 352° |
| 2026-04-18 04:55 | 39.67672 | 116.91110 | 11783 ft | 351 kts | 350° |
| 2026-04-18 04:56 | 39.72410 | 116.90392 | 11518 ft | 336 kts | 351° |
| 2026-04-18 04:56 | 39.74706 | 116.90050 | 11337 ft | 327 kts | 351° |
| 2026-04-18 04:56 | 39.76931 | 116.89720 | 11262 ft | 318 kts | 351° |
| 2026-04-18 04:56 | 39.79118 | 116.89392 | 11188 ft | 315 kts | 350° |
| 2026-04-18 04:57 | 39.81276 | 116.89063 | 11119 ft | 314 kts | 350° |
| 2026-04-18 04:57 | 39.83460 | 116.88729 | 11048 ft | 314 kts | 350° |
| 2026-04-18 04:57 | 39.85634 | 116.88399 | 10682 ft | 317 kts | 350° |
| 2026-04-18 04:57 | 39.87801 | 116.88071 | 10379 ft | 307 kts | 350° |
| 2026-04-18 04:58 | 39.89899 | 116.87753 | 10210 ft | 301 kts | 350° |
| 2026-04-18 04:58 | 39.91965 | 116.87435 | 10066 ft | 299 kts | 350° |
| 2026-04-18 04:58 | 39.94023 | 116.87116 | 9756 ft | 302 kts | 350° |
| 2026-04-18 04:58 | 39.96142 | 116.86791 | 9263 ft | 300 kts | 350° |
| 2026-04-18 04:59 | 39.98173 | 116.86488 | 9026 ft | 286 kts | 349° |
| 2026-04-18 04:59 | 40.00081 | 116.86203 | 8787 ft | 273 kts | 349° |
| 2026-04-18 04:59 | 40.01941 | 116.85759 | 8320 ft | 264 kts | 333° |
| 2026-04-18 04:59 | 40.03410 | 116.84478 | 7882 ft | 248 kts | 305° |
| 2026-04-18 05:00 | 40.04243 | 116.82623 | 7448 ft | 234 kts | 280° |
| 2026-04-18 05:00 | 40.04413 | 116.80583 | 7010 ft | 222 kts | 259° |
| 2026-04-18 05:00 | 40.04229 | 116.78585 | 6577 ft | 219 kts | 258° |
| 2026-04-18 05:00 | 40.04057 | 116.76622 | 6134 ft | 219 kts | 261° |
| 2026-04-18 05:01 | 40.04427 | 116.74717 | 5900 ft | 221 kts | 300° |
| 2026-04-18 05:01 | 40.05647 | 116.73581 | 5865 ft | 221 kts | 340° |
| 2026-04-18 05:01 | 40.07184 | 116.73345 | 5609 ft | 224 kts | 349° |
| 2026-04-18 05:01 | 40.08765 | 116.73119 | 5110 ft | 229 kts | 348° |
| 2026-04-18 05:02 | 40.10332 | 116.72870 | 4783 ft | 224 kts | 348° |
| 2026-04-18 05:02 | 40.11856 | 116.72623 | 4484 ft | 218 kts | 348° |
| 2026-04-18 05:02 | 40.13353 | 116.72384 | 4199 ft | 214 kts | 349° |
| 2026-04-18 05:02 | 40.14826 | 116.72147 | 3931 ft | 213 kts | 349° |
| 2026-04-18 05:03 | 40.16287 | 116.71891 | 3663 ft | 210 kts | 346° |
| 2026-04-18 05:03 | 40.17625 | 116.71205 | 3405 ft | 205 kts | 326° |
| 2026-04-18 05:03 | 40.18695 | 116.70037 | 3148 ft | 199 kts | 308° |
| 2026-04-18 05:03 | 40.19427 | 116.68532 | 2893 ft | 194 kts | 290° |
| 2026-04-18 05:04 | 40.19772 | 116.66896 | 2666 ft | 189 kts | 275° |
| 2026-04-18 05:04 | 40.19748 | 116.65201 | 2432 ft | 185 kts | 258° |
| 2026-04-18 05:04 | 40.19356 | 116.63606 | 2197 ft | 181 kts | 240° |
| 2026-04-18 05:04 | 40.18658 | 116.62263 | 1974 ft | 178 kts | 225° |
| 2026-04-18 05:05 | 40.17735 | 116.61239 | 1745 ft | 168 kts | 210° |
| 2026-04-18 05:05 | 40.16733 | 116.60612 | 1534 ft | 158 kts | 197° |
| 2026-04-18 05:05 | 40.15714 | 116.60339 | 1341 ft | 142 kts | 183° |
| 2026-04-18 05:05 | 40.14762 | 116.60365 | 1166 ft | 132 kts | 169° |
| 2026-04-18 05:06 | 40.13872 | 116.60508 | 1010 ft | 128 kts | 170° |
| 2026-04-18 05:06 | 40.12984 | 116.60647 | 857 ft | 127 kts | 172° |
| 2026-04-18 05:06 | 40.12094 | 116.60788 | 687 ft | 129 kts | 172° |
| 2026-04-18 05:06 | 40.11194 | 116.60929 | 500 ft | 132 kts | 172° |
| 2026-04-18 05:07 | 40.10275 | 116.61066 | 336 ft | 134 kts | 172° |
| 2026-04-18 05:07 | 40.09337 | 116.61222 | 206 ft | 138 kts | 172° |
| 2026-04-18 05:07 | 40.08423 | 116.61365 | 125 ft | 116 kts | 173° |
| 2026-04-18 05:07 | 40.07797 | 116.61469 | 124 ft | 66 kts | 173° |
| 2026-04-18 05:08 | 40.07475 | 116.61519 | 122 ft | 31 kts | 175° |
| 2026-04-18 05:08 | 40.07297 | 116.61492 | 122 ft | 20 kts | 195° |
| 2026-04-18 05:08 | 40.07191 | 116.61438 | 121 ft | 17 kts | 203° |
| 2026-04-18 05:08 | 40.07077 | 116.61375 | 123 ft | 19 kts | 203° |
| 2026-04-18 05:09 | 40.06949 | 116.61366 | 122 ft | 20 kts | 173° |
| 2026-04-18 05:09 | 40.06807 | 116.61388 | 124 ft | 21 kts | 173° |
| 2026-04-18 05:09 | 40.06656 | 116.61412 | 123 ft | 22 kts | 173° |
| 2026-04-18 05:09 | 40.06499 | 116.61437 | 121 ft | 23 kts | 173° |
| 2026-04-18 05:10 | 40.06333 | 116.61462 | 121 ft | 24 kts | 172° |
| 2026-04-18 05:10 | 40.06161 | 116.61490 | 124 ft | 25 kts | 175° |
| 2026-04-18 05:10 | 40.06000 | 116.61514 | 121 ft | 23 kts | 173° |
| 2026-04-18 05:10 | 40.05838 | 116.61540 | 120 ft | 24 kts | 173° |
| 2026-04-18 05:11 | 40.05712 | 116.61560 | 124 ft | 19 kts | 173° |
| 2026-04-18 05:11 | 40.05599 | 116.61575 | 124 ft | 11 kts | 179° |
| 2026-04-18 05:11 | 40.05523 | 116.61541 | 121 ft | 13 kts | 203° |
| 2026-04-18 05:11 | 40.05495 | 116.61474 | 121 ft | 10 kts | 284° |
| 2026-04-18 05:12 | 40.05524 | 116.61384 | 124 ft | 12 kts | 293° |
| 2026-04-18 05:12 | 40.05553 | 116.61301 | 123 ft | 9 kts | 301° |
| 2026-04-18 05:12 | 40.05545 | 116.61245 | 123 ft | 7 kts | 223° |
| 2026-04-18 05:12 | 40.05508 | 116.61209 | 121 ft | 5 kts | 217° |
| 2026-04-18 05:13 | 40.05493 | 116.61195 | 123 ft | 2 kts | 217° |
| 2026-04-18 05:13 | 40.05487 | 116.61189 | 123 ft | 1 kts | 217° |
| 2026-04-18 05:13 | 40.05484 | 116.61186 | 120 ft | 0 kts | 217° |